createdAt,value
2023-03-18T00:00:30.369Z,10.14
2023-03-18T00:01:33.623Z,10.57
2023-03-18T00:02:36.951Z,10.33
2023-03-18T00:03:40.436Z,10.29
2023-03-18T00:04:43.555Z,10.86
2023-03-18T00:05:46.752Z,11.00
2023-03-18T00:06:49.840Z,11.29
2023-03-18T00:07:53.095Z,10.43
2023-03-18T00:08:56.271Z,11.33
2023-03-18T00:09:59.696Z,10.83
2023-03-18T00:11:02.882Z,13.57
2023-03-18T00:12:06.580Z,13.83
2023-03-18T00:13:09.615Z,10.00
2023-03-18T00:14:13.095Z,10.29
2023-03-18T00:15:16.521Z,9.71
2023-03-18T00:16:19.951Z,11.43
2023-03-18T00:17:23.219Z,11.00
2023-03-18T00:18:26.589Z,11.71
2023-03-18T00:19:29.666Z,12.00
2023-03-18T00:20:33.492Z,11.86
2023-03-18T00:21:37.170Z,12.25
2023-03-18T00:22:40.434Z,12.25
2023-03-18T00:23:43.621Z,10.00
2023-03-18T00:24:47.313Z,10.43
2023-03-18T00:25:50.597Z,10.75
2023-03-18T00:26:53.879Z,11.29
2023-03-18T00:27:57.276Z,12.29
2023-03-18T00:29:00.552Z,11.86
2023-03-18T00:30:04.040Z,11.57
2023-03-18T00:31:07.566Z,11.57
2023-03-18T00:32:11.065Z,12.43
2023-03-18T00:33:14.551Z,11.57
2023-03-18T00:34:18.109Z,8.57
2023-03-18T00:35:21.595Z,10.00
2023-03-18T00:36:24.801Z,9.29
2023-03-18T00:37:28.057Z,9.67
2023-03-18T00:38:31.438Z,9.00
2023-03-18T00:39:34.633Z,8.00
2023-03-18T00:40:38.015Z,7.86
2023-03-18T00:41:41.190Z,7.86
2023-03-18T00:42:44.473Z,8.50
2023-03-18T00:43:47.875Z,9.29
2023-03-18T00:44:51.148Z,11.00
2023-03-18T00:45:54.329Z,10.67
2023-03-18T00:46:57.670Z,10.14
2023-03-18T00:48:00.904Z,10.29
2023-03-18T00:49:04.183Z,10.17
2023-03-18T00:50:07.686Z,10.50
2023-03-18T00:51:10.855Z,10.57
2023-03-18T00:52:13.973Z,9.43
2023-03-18T00:53:17.317Z,7.86
2023-03-18T00:54:20.598Z,8.00
2023-03-18T00:55:23.743Z,10.71
2023-03-18T00:56:26.962Z,9.71
2023-03-18T00:57:30.156Z,9.00
2023-03-18T00:58:33.434Z,9.00
2023-03-18T00:59:36.609Z,10.43
2023-03-18T01:00:39.848Z,11.43
2023-03-18T01:01:43.131Z,11.57
2023-03-18T01:02:46.367Z,10.00
2023-03-18T01:03:49.751Z,9.29
2023-03-18T01:04:53.143Z,8.57
2023-03-18T01:05:56.328Z,9.00
2023-03-18T01:06:59.529Z,9.50
2023-03-18T01:08:02.556Z,12.17
2023-03-18T01:09:05.872Z,11.67
2023-03-18T01:10:09.056Z,12.00
2023-03-18T01:11:12.452Z,10.29
2023-03-18T01:12:15.616Z,10.57
2023-03-18T01:13:18.898Z,11.00
2023-03-18T01:14:22.190Z,11.00
2023-03-18T01:15:25.393Z,12.50
2023-03-18T01:16:28.634Z,14.33
2023-03-18T01:17:31.837Z,11.86
2023-03-18T01:18:35.014Z,12.00
2023-03-18T01:19:38.152Z,12.43
2023-03-18T01:20:41.154Z,13.43
2023-03-18T01:21:44.477Z,12.67
2023-03-18T01:22:47.774Z,11.71
2023-03-18T01:23:51.014Z,12.43
2023-03-18T01:24:54.219Z,12.29
2023-03-18T01:25:57.390Z,11.14
2023-03-18T01:27:00.468Z,12.86
2023-03-18T01:28:03.592Z,12.14
2023-03-18T01:29:06.621Z,11.14
2023-03-18T01:30:09.916Z,12.17
2023-03-18T01:31:13.073Z,12.71
2023-03-18T01:32:16.272Z,13.29
2023-03-18T01:33:19.359Z,12.71
2023-03-18T01:34:22.545Z,11.71
2023-03-18T01:35:25.725Z,12.14
2023-03-18T01:36:29.111Z,10.67
2023-03-18T01:37:32.317Z,11.57
2023-03-18T01:38:35.578Z,11.71
2023-03-18T01:39:38.853Z,9.71
2023-03-18T01:40:45.009Z,10.43
2023-03-18T01:41:48.075Z,10.00
2023-03-18T01:42:51.578Z,10.67
2023-03-18T01:43:55.291Z,10.71
2023-03-18T01:44:58.753Z,13.14
2023-03-18T01:46:02.123Z,11.43
2023-03-18T01:47:05.562Z,11.00
2023-03-18T01:48:09.017Z,11.00
2023-03-18T01:49:12.733Z,11.50
2023-03-18T01:50:15.909Z,10.57
2023-03-18T01:51:19.383Z,10.86
2023-03-18T01:52:22.895Z,11.00
2023-03-18T01:53:26.360Z,10.57
2023-03-18T01:54:30.154Z,10.43
2023-03-18T01:55:33.549Z,10.86
2023-03-18T01:56:36.929Z,12.00
2023-03-18T01:57:40.230Z,12.71
2023-03-18T01:58:43.624Z,13.00
2023-03-18T01:59:47.103Z,14.43
2023-03-18T02:00:50.389Z,12.71
2023-03-18T02:01:53.768Z,12.00
2023-03-18T02:02:57.064Z,12.14
2023-03-18T02:04:00.629Z,12.14
2023-03-18T02:05:04.008Z,12.71
2023-03-18T02:06:07.285Z,12.43
2023-03-18T02:07:10.701Z,11.17
2023-03-18T02:08:14.179Z,12.29
2023-03-18T02:09:17.567Z,12.57
2023-03-18T02:10:20.966Z,13.17
2023-03-18T02:12:26.918Z,11.00
2023-03-18T02:13:30.517Z,11.25
2023-03-18T02:14:34.001Z,11.71
2023-03-18T02:15:37.433Z,10.25
2023-03-18T02:16:41.036Z,11.71
2023-03-18T02:17:45.494Z,12.63
2023-03-18T02:18:48.855Z,12.71
2023-03-18T02:19:52.253Z,10.86
2023-03-18T02:20:56.383Z,11.38
2023-03-18T02:21:59.957Z,12.25
2023-03-18T02:23:03.645Z,11.00
2023-03-18T02:24:07.137Z,10.71
2023-03-18T02:25:10.532Z,10.86
2023-03-18T02:26:14.217Z,12.25
2023-03-18T02:27:17.392Z,11.14
2023-03-18T02:28:20.460Z,12.00
2023-03-18T02:29:23.555Z,12.33
2023-03-18T02:30:26.533Z,13.00
2023-03-18T02:31:29.857Z,12.57
2023-03-18T02:32:33.151Z,11.57
2023-03-18T02:33:36.393Z,11.33
2023-03-18T02:34:39.480Z,12.67
2023-03-18T02:35:42.671Z,12.17
2023-03-18T02:36:45.832Z,10.17
2023-03-18T02:37:49.113Z,12.43
2023-03-18T02:38:52.393Z,12.14
2023-03-18T02:39:55.685Z,12.00
2023-03-18T02:40:58.860Z,12.00
2023-03-18T02:42:02.049Z,13.29
2023-03-18T02:43:05.331Z,14.14
2023-03-18T02:44:08.813Z,12.67
2023-03-18T02:45:12.233Z,12.00
2023-03-18T02:46:15.599Z,11.43
2023-03-18T02:47:19.032Z,12.00
2023-03-18T02:48:22.465Z,12.57
2023-03-18T02:49:25.949Z,13.43
2023-03-18T02:50:29.502Z,13.71
2023-03-18T02:51:32.942Z,14.14
2023-03-18T02:52:36.301Z,11.86
2023-03-18T02:53:39.590Z,10.86
2023-03-18T02:54:42.888Z,12.43
2023-03-18T02:55:46.386Z,13.00
2023-03-18T02:56:49.801Z,12.29
2023-03-18T02:57:53.053Z,12.43
2023-03-18T02:58:56.233Z,12.43
2023-03-18T02:59:59.615Z,10.43
2023-03-18T03:01:03.047Z,10.86
2023-03-18T03:02:06.456Z,11.71
2023-03-18T03:03:09.925Z,10.71
2023-03-18T03:04:13.058Z,11.50
2023-03-18T03:05:16.295Z,13.00
2023-03-18T03:06:19.326Z,13.00
2023-03-18T03:07:22.432Z,12.00
2023-03-18T03:08:25.718Z,10.14
2023-03-18T03:09:29.184Z,9.86
2023-03-18T03:10:32.854Z,9.00
2023-03-18T03:11:36.158Z,10.71
2023-03-18T03:12:39.759Z,12.29
2023-03-18T03:13:43.130Z,10.57
2023-03-18T03:14:46.724Z,11.00
2023-03-18T03:15:50.142Z,9.00
2023-03-18T03:16:53.714Z,9.86
2023-03-18T03:17:56.831Z,9.71
2023-03-18T03:19:00.280Z,10.71
2023-03-18T03:20:04.794Z,11.86
2023-03-18T03:21:08.176Z,10.38
2023-03-18T03:22:11.670Z,9.14
2023-03-18T03:23:14.791Z,10.43
2023-03-18T03:24:18.031Z,11.67
2023-03-18T03:25:21.325Z,11.29
2023-03-18T03:26:24.457Z,11.43
2023-03-18T03:27:27.981Z,11.14
2023-03-18T03:28:31.266Z,11.00
2023-03-18T03:29:34.669Z,8.57
2023-03-18T03:30:37.941Z,10.57
2023-03-18T03:31:41.215Z,11.00
2023-03-18T03:32:44.306Z,10.57
2023-03-18T03:33:47.484Z,11.43
2023-03-18T03:34:50.670Z,11.57
2023-03-18T03:35:53.877Z,11.43
2023-03-18T03:36:57.132Z,12.00
2023-03-18T03:38:00.432Z,10.71
2023-03-18T03:39:03.711Z,9.17
2023-03-18T03:40:06.789Z,8.57
2023-03-18T03:41:09.959Z,9.29
2023-03-18T03:42:13.145Z,11.00
2023-03-18T03:43:16.231Z,9.43
2023-03-18T03:44:19.398Z,9.29
2023-03-18T03:45:22.517Z,10.14
2023-03-18T03:46:25.583Z,12.33
2023-03-18T03:47:28.754Z,10.00
2023-03-18T03:48:31.820Z,11.00
2023-03-18T03:49:34.859Z,8.83
2023-03-18T03:50:38.095Z,10.33
2023-03-18T03:51:41.268Z,9.86
2023-03-18T03:52:44.453Z,9.67
2023-03-18T03:53:47.733Z,11.17
2023-03-18T03:54:51.015Z,11.57
2023-03-18T03:55:54.094Z,10.43
2023-03-18T03:56:57.479Z,12.86
2023-03-18T03:58:00.557Z,12.71
2023-03-18T03:59:03.641Z,11.17
2023-03-18T04:00:06.920Z,10.14
2023-03-18T04:01:10.018Z,9.86
2023-03-18T04:02:13.132Z,8.83
2023-03-18T04:03:16.276Z,10.00
2023-03-18T04:04:19.672Z,9.43
2023-03-18T04:05:22.756Z,10.86
2023-03-18T04:06:25.814Z,10.50
2023-03-18T04:07:28.891Z,10.00
2023-03-18T04:08:32.071Z,10.17
2023-03-18T04:09:35.255Z,10.71
2023-03-18T04:10:38.444Z,10.00
2023-03-18T04:11:41.454Z,8.67
2023-03-18T04:12:44.698Z,9.33
2023-03-18T04:13:47.773Z,8.43
2023-03-18T04:14:51.822Z,10.00
2023-03-18T04:15:55.112Z,10.88
2023-03-18T04:16:58.270Z,11.00
2023-03-18T04:18:01.441Z,9.14
2023-03-18T04:19:04.609Z,7.57
2023-03-18T04:20:07.693Z,8.71
2023-03-18T04:21:11.074Z,9.57
2023-03-18T04:22:14.362Z,10.67
2023-03-18T04:23:17.470Z,11.67
2023-03-18T04:24:20.620Z,10.83
2023-03-18T04:25:24.316Z,10.14
2023-03-18T04:26:27.607Z,8.57
2023-03-18T04:27:30.775Z,8.14
2023-03-18T04:28:33.961Z,8.33
2023-03-18T04:29:36.931Z,8.00
2023-03-18T04:30:40.114Z,8.50
2023-03-18T04:31:43.465Z,9.43
2023-03-18T04:32:46.763Z,9.43
2023-03-18T04:33:50.068Z,9.57
2023-03-18T04:34:53.330Z,8.71
2023-03-18T04:35:56.978Z,8.86
2023-03-18T04:37:00.340Z,9.29
2023-03-18T04:38:03.648Z,8.71
2023-03-18T04:39:06.694Z,7.14
2023-03-18T04:40:10.090Z,8.43
2023-03-18T04:41:13.149Z,8.57
2023-03-18T04:42:16.444Z,7.57
2023-03-18T04:43:19.627Z,7.57
2023-03-18T04:44:22.682Z,8.83
2023-03-18T04:45:25.884Z,8.67
2023-03-18T04:46:29.095Z,8.00
2023-03-18T04:47:32.148Z,10.14
2023-03-18T04:48:35.294Z,12.14
2023-03-18T04:49:38.408Z,10.00
2023-03-18T04:50:41.499Z,8.86
2023-03-18T04:51:44.621Z,8.71
2023-03-18T04:52:47.652Z,10.00
2023-03-18T04:53:50.735Z,8.57
2023-03-18T04:54:53.849Z,8.67
2023-03-18T04:55:56.990Z,8.00
2023-03-18T04:57:00.176Z,8.67
2023-03-18T04:58:03.349Z,11.29
2023-03-18T04:59:06.848Z,10.14
2023-03-18T05:00:11.473Z,8.43
2023-03-18T05:01:14.454Z,8.25
2023-03-18T05:02:17.736Z,9.71
2023-03-18T05:03:21.010Z,8.86
2023-03-18T05:04:24.080Z,9.57
2023-03-18T05:05:27.232Z,8.50
2023-03-18T05:06:30.352Z,9.29
2023-03-18T05:07:33.448Z,9.29
2023-03-18T05:08:36.614Z,9.14
2023-03-18T05:09:40.007Z,7.43
2023-03-18T05:10:43.284Z,7.29
2023-03-18T05:11:46.666Z,8.00
2023-03-18T05:12:49.860Z,8.14
2023-03-18T05:13:52.864Z,8.57
2023-03-18T05:14:56.314Z,7.71
2023-03-18T05:15:59.595Z,8.00
2023-03-18T05:17:02.774Z,8.57
2023-03-18T05:18:05.752Z,9.00
2023-03-18T05:19:09.246Z,8.43
2023-03-18T05:20:12.294Z,9.14
2023-03-18T05:21:15.406Z,9.33
2023-03-18T05:22:18.491Z,8.43
2023-03-18T05:23:21.661Z,10.29
2023-03-18T05:24:25.256Z,10.29
2023-03-18T05:25:28.752Z,9.43
2023-03-18T05:26:32.037Z,7.75
2023-03-18T05:27:35.158Z,7.57
2023-03-18T05:28:38.187Z,7.17
2023-03-18T05:29:41.273Z,9.00
2023-03-18T05:30:44.453Z,8.33
2023-03-18T05:31:47.765Z,8.50
2023-03-18T05:32:50.925Z,8.71
2023-03-18T05:33:54.225Z,8.14
2023-03-18T05:34:57.380Z,7.57
2023-03-18T05:36:00.563Z,6.43
2023-03-18T05:37:03.751Z,7.71
2023-03-18T05:38:06.928Z,9.71
2023-03-18T05:39:09.965Z,9.43
2023-03-18T05:40:13.004Z,9.71
2023-03-18T05:41:16.059Z,9.50
2023-03-18T05:42:19.147Z,9.14
2023-03-18T05:43:22.201Z,9.43
2023-03-18T05:44:25.812Z,7.86
2023-03-18T05:45:29.044Z,8.00
2023-03-18T05:46:37.539Z,8.57
2023-03-18T05:47:40.684Z,8.38
2023-03-18T05:48:43.762Z,8.67
2023-03-18T05:50:57.521Z,10.13
2023-03-18T05:52:00.788Z,9.00
2023-03-18T05:53:04.166Z,7.86
2023-03-18T05:54:07.559Z,7.50
2023-03-18T05:55:11.049Z,8.00
2023-03-18T05:56:15.863Z,7.14
2023-03-18T05:57:19.433Z,7.87
2023-03-18T05:58:22.444Z,8.43
2023-03-18T05:59:25.519Z,7.67
2023-03-18T06:00:28.616Z,8.17
2023-03-18T06:01:31.779Z,8.57
2023-03-18T06:02:34.787Z,9.00
2023-03-18T06:03:38.189Z,9.29
2023-03-18T06:04:41.445Z,7.86
2023-03-18T06:05:44.505Z,8.67
2023-03-18T06:06:47.713Z,8.67
2023-03-18T06:07:50.878Z,9.67
2023-03-18T06:08:53.956Z,8.67
2023-03-18T06:09:57.036Z,9.00
2023-03-18T06:11:00.212Z,9.86
2023-03-18T06:12:03.408Z,9.29
2023-03-18T06:13:06.676Z,8.00
2023-03-18T06:14:09.861Z,7.86
2023-03-18T06:15:13.161Z,8.33
2023-03-18T06:16:16.346Z,9.43
2023-03-18T06:17:19.609Z,9.86
2023-03-18T06:18:23.098Z,9.43
2023-03-18T06:19:26.276Z,8.71
2023-03-18T06:20:29.578Z,7.00
2023-03-18T06:21:33.145Z,8.00
2023-03-18T06:22:36.230Z,8.86
2023-03-18T06:23:39.420Z,8.29
2023-03-18T06:24:42.272Z,7.14
2023-03-18T06:25:45.380Z,9.17
2023-03-18T06:26:48.314Z,8.43
2023-03-18T06:27:51.404Z,6.71
2023-03-18T06:28:54.417Z,6.86
2023-03-18T06:29:57.797Z,5.86
2023-03-18T06:31:00.900Z,7.43
2023-03-18T06:32:04.062Z,8.00
2023-03-18T06:33:07.337Z,8.14
2023-03-18T06:34:10.520Z,7.43
2023-03-18T06:37:46.483Z,8.63
2023-03-18T06:38:51.654Z,10.43
2023-03-18T06:39:54.797Z,10.50
2023-03-18T06:40:58.379Z,9.29
2023-03-18T06:42:01.369Z,10.29
2023-03-18T06:43:04.538Z,10.57
2023-03-18T06:44:07.729Z,8.14
2023-03-18T06:45:10.915Z,8.86
2023-03-18T06:46:14.211Z,9.29
2023-03-18T06:47:17.281Z,8.57
2023-03-18T06:48:20.554Z,8.57
2023-03-18T06:49:23.663Z,9.57
2023-03-18T06:50:26.815Z,9.17
2023-03-18T06:51:29.997Z,7.57
2023-03-18T06:52:33.178Z,9.43
2023-03-18T06:53:36.399Z,11.29
2023-03-18T06:54:39.444Z,8.50
2023-03-18T06:55:42.636Z,8.29
2023-03-18T06:56:46.392Z,8.57
2023-03-18T06:57:50.368Z,8.88
2023-03-18T06:58:53.499Z,8.38
2023-03-18T06:59:56.570Z,6.86
2023-03-18T07:00:59.895Z,8.33
2023-03-18T07:02:03.123Z,8.86
2023-03-18T07:03:06.638Z,11.86
2023-03-18T07:04:09.753Z,9.29
2023-03-18T07:05:12.862Z,8.50
2023-03-18T07:06:16.084Z,10.17
2023-03-18T07:07:19.179Z,9.50
2023-03-18T07:08:22.287Z,9.00
2023-03-18T07:09:25.315Z,9.33
2023-03-18T07:10:28.605Z,9.67
2023-03-18T07:11:31.590Z,9.00
2023-03-18T07:12:34.757Z,8.50
2023-03-18T07:13:37.838Z,9.43
2023-03-18T07:14:41.124Z,9.43
2023-03-18T07:15:44.274Z,8.00
2023-03-18T07:16:47.495Z,6.57
2023-03-18T07:17:50.678Z,7.43
2023-03-18T07:18:53.753Z,8.17
2023-03-18T07:19:57.096Z,9.67
2023-03-18T07:21:00.323Z,11.67
2023-03-18T07:22:03.458Z,10.00
2023-03-18T07:23:06.885Z,7.50
2023-03-18T07:24:10.276Z,9.00
2023-03-18T07:25:13.762Z,9.57
2023-03-18T07:26:17.251Z,9.86
2023-03-18T07:27:20.542Z,8.14
2023-03-18T07:28:23.929Z,9.14
2023-03-18T07:29:27.202Z,10.29
2023-03-18T07:30:30.702Z,9.00
2023-03-18T07:31:33.876Z,7.00
2023-03-18T07:32:37.281Z,8.86
2023-03-18T07:33:40.753Z,8.71
2023-03-18T07:34:44.242Z,8.83
2023-03-18T07:35:47.545Z,8.00
2023-03-18T07:36:50.730Z,9.57
2023-03-18T07:37:53.749Z,9.00
2023-03-18T07:38:56.877Z,8.57
2023-03-18T07:40:00.246Z,9.50
2023-03-18T07:41:03.739Z,9.43
2023-03-18T07:42:07.142Z,9.14
2023-03-18T07:43:10.515Z,8.29
2023-03-18T07:44:13.802Z,8.00
2023-03-18T07:45:17.082Z,10.00
2023-03-18T07:46:20.445Z,11.43
2023-03-18T07:47:23.764Z,7.29
2023-03-18T07:48:27.144Z,9.00
2023-03-18T07:49:30.431Z,9.14
2023-03-18T07:50:33.476Z,8.00
2023-03-18T07:51:36.589Z,8.57
2023-03-18T07:52:39.781Z,9.67
2023-03-18T07:53:42.768Z,8.67
2023-03-18T07:54:45.836Z,10.00
2023-03-18T07:55:54.833Z,9.14
2023-03-18T07:56:58.288Z,7.50
2023-03-18T07:58:01.309Z,8.86
2023-03-18T07:59:04.495Z,10.00
2023-03-18T08:00:07.570Z,12.86
2023-03-18T08:01:10.756Z,13.29
2023-03-18T08:02:13.838Z,10.43
2023-03-18T08:03:16.905Z,11.43
2023-03-18T08:04:20.226Z,11.57
2023-03-18T08:05:23.472Z,10.57
2023-03-18T08:06:26.566Z,10.57
2023-03-18T08:07:29.736Z,9.00
2023-03-18T08:08:33.239Z,7.57
2023-03-18T08:09:36.731Z,8.71
2023-03-18T08:10:40.003Z,8.43
2023-03-18T08:11:43.383Z,9.00
2023-03-18T08:12:53.260Z,11.14
2023-03-18T08:13:51.308Z,13.00
2023-03-18T08:14:54.780Z,11.14
2023-03-18T08:15:58.267Z,10.57
2023-03-18T08:17:01.654Z,9.57
2023-03-18T08:18:05.590Z,10.43
2023-03-18T08:19:09.178Z,12.25
2023-03-18T08:20:12.244Z,13.71
2023-03-18T08:21:15.633Z,12.00
2023-03-18T08:22:18.792Z,12.57
2023-03-18T08:23:21.973Z,13.29
2023-03-18T08:24:25.166Z,11.86
2023-03-18T08:25:28.229Z,11.86
2023-03-18T08:26:31.394Z,10.29
2023-03-18T08:27:34.512Z,9.57
2023-03-18T08:28:37.612Z,9.86
2023-03-18T08:29:40.854Z,10.43
2023-03-18T08:30:43.935Z,10.86
2023-03-18T08:31:47.243Z,11.00
2023-03-18T08:32:50.495Z,10.86
2023-03-18T08:33:53.894Z,10.57
2023-03-18T08:34:57.558Z,10.43
2023-03-18T08:36:00.898Z,12.50
2023-03-18T08:37:04.575Z,12.43
2023-03-18T08:38:07.907Z,9.57
2023-03-18T08:39:11.145Z,11.57
2023-03-18T08:40:14.648Z,11.29
2023-03-18T08:41:17.779Z,8.29
2023-03-18T08:42:21.083Z,10.86
2023-03-18T08:43:24.237Z,12.33
2023-03-18T08:44:27.553Z,10.67
2023-03-18T08:45:31.443Z,9.43
2023-03-18T08:46:35.145Z,9.00
2023-03-18T08:47:38.533Z,8.71
2023-03-18T08:48:41.850Z,11.14
2023-03-18T08:49:45.099Z,11.71
2023-03-18T08:50:48.696Z,11.14
2023-03-18T08:51:52.108Z,10.43
2023-03-18T08:52:55.162Z,11.71
2023-03-18T08:53:58.483Z,8.86
2023-03-18T08:55:01.629Z,10.00
2023-03-18T08:56:04.916Z,9.71
2023-03-18T08:57:07.988Z,7.57
2023-03-18T08:58:11.081Z,8.71
2023-03-18T08:59:14.151Z,10.17
2023-03-18T09:00:17.327Z,11.14
2023-03-18T09:01:20.604Z,10.29
2023-03-18T09:02:23.588Z,11.00
2023-03-18T09:03:26.685Z,10.33
2023-03-18T09:04:29.853Z,9.86
2023-03-18T09:05:33.148Z,9.86
2023-03-18T09:06:36.910Z,10.00
2023-03-18T09:07:40.222Z,12.43
2023-03-18T09:08:43.607Z,13.00
2023-03-18T09:09:46.793Z,10.14
2023-03-18T09:10:49.969Z,8.71
2023-03-18T09:11:53.353Z,8.57
2023-03-18T09:12:56.439Z,11.00
2023-03-18T09:13:59.829Z,9.17
2023-03-18T09:15:03.315Z,10.29
2023-03-18T09:16:06.454Z,15.14
2023-03-18T09:17:09.898Z,13.71
2023-03-18T09:18:13.221Z,13.43
2023-03-18T09:19:16.668Z,11.71
2023-03-18T09:20:19.936Z,10.57
2023-03-18T09:21:23.118Z,11.29
2023-03-18T09:22:26.396Z,11.71
2023-03-18T09:23:29.791Z,10.14
2023-03-18T09:24:33.072Z,14.14
2023-03-18T09:25:36.455Z,14.00
2023-03-18T09:26:39.858Z,11.71
2023-03-18T09:27:43.437Z,9.43
2023-03-18T09:28:46.714Z,7.71
2023-03-18T09:29:50.016Z,9.17
2023-03-18T09:30:53.097Z,11.29
2023-03-18T09:31:56.172Z,8.83
2023-03-18T09:32:59.576Z,9.50
2023-03-18T09:34:02.649Z,8.75
2023-03-18T09:35:05.710Z,8.33
2023-03-18T09:36:08.815Z,8.67
2023-03-18T09:37:11.864Z,9.29
2023-03-18T09:38:15.252Z,10.00
2023-03-18T09:39:18.534Z,10.29
2023-03-18T09:40:21.512Z,12.00
2023-03-18T09:41:24.792Z,11.86
2023-03-18T09:42:27.877Z,9.43
2023-03-18T09:43:31.376Z,9.29
2023-03-18T09:44:34.551Z,8.63
2023-03-18T09:45:37.628Z,11.33
2023-03-18T09:46:40.860Z,12.00
2023-03-18T09:47:44.210Z,10.71
2023-03-18T09:48:47.181Z,10.43
2023-03-18T09:49:50.354Z,10.29
2023-03-18T09:50:53.455Z,10.00
2023-03-18T09:51:56.513Z,12.00
2023-03-18T09:52:59.490Z,12.00
2023-03-18T09:54:02.569Z,10.33
2023-03-18T09:55:05.606Z,8.00
2023-03-18T09:56:08.729Z,9.43
2023-03-18T09:57:11.791Z,10.71
2023-03-18T09:58:14.810Z,11.67
2023-03-18T09:59:17.848Z,11.00
2023-03-18T10:00:20.953Z,10.67
2023-03-18T10:01:24.271Z,12.14
2023-03-18T10:02:27.512Z,10.29
2023-03-18T10:03:30.732Z,12.00
2023-03-18T10:04:34.289Z,10.29
2023-03-18T10:05:37.358Z,8.14
2023-03-18T10:06:40.428Z,8.86
2023-03-18T10:07:43.522Z,9.29
2023-03-18T10:08:52.438Z,8.57
2023-03-18T10:09:55.749Z,12.00
2023-03-18T10:10:59.235Z,11.00
2023-03-18T10:12:02.720Z,8.86
2023-03-18T10:13:05.786Z,11.00
2023-03-18T10:14:08.897Z,9.83
2023-03-18T10:15:12.364Z,10.33
2023-03-18T10:16:15.796Z,10.00
2023-03-18T10:17:18.813Z,9.86
2023-03-18T10:18:22.019Z,9.83
2023-03-18T10:19:25.278Z,10.43
2023-03-18T10:20:28.538Z,10.71
2023-03-18T10:21:31.749Z,9.86
2023-03-18T10:22:34.780Z,10.71
2023-03-18T10:23:37.911Z,12.43
2023-03-18T10:24:40.836Z,10.50
2023-03-18T10:25:44.071Z,10.67
2023-03-18T10:26:47.142Z,12.43
2023-03-18T10:27:50.555Z,10.00
2023-03-18T10:28:53.672Z,12.86
2023-03-18T10:29:56.881Z,11.86
2023-03-18T10:31:00.262Z,9.57
2023-03-18T10:32:03.471Z,10.29
2023-03-18T10:33:06.719Z,9.29
2023-03-18T10:34:10.248Z,10.29
2023-03-18T10:35:13.621Z,10.43
2023-03-18T10:36:16.828Z,10.14
2023-03-18T10:37:20.201Z,11.43
2023-03-18T10:38:23.310Z,11.57
2023-03-18T10:39:26.568Z,10.00
2023-03-18T10:40:29.748Z,7.71
2023-03-18T10:41:33.332Z,9.57
2023-03-18T10:42:36.717Z,8.63
2023-03-18T10:43:39.698Z,10.29
2023-03-18T10:44:42.984Z,12.43
2023-03-18T10:45:46.481Z,11.57
2023-03-18T10:46:50.059Z,10.14
2023-03-18T10:47:53.352Z,10.88
2023-03-18T10:48:56.836Z,11.57
2023-03-18T10:50:00.019Z,9.57
2023-03-18T10:51:03.299Z,9.71
2023-03-18T10:52:06.828Z,10.00
2023-03-18T10:53:09.772Z,12.14
2023-03-18T10:54:13.049Z,13.50
2023-03-18T10:55:16.228Z,11.33
2023-03-18T10:56:19.614Z,10.00
2023-03-18T10:57:23.113Z,9.29
2023-03-18T10:58:26.289Z,9.71
2023-03-18T10:59:29.576Z,10.29
2023-03-18T11:00:32.969Z,12.29
2023-03-18T11:01:36.675Z,13.25
2023-03-18T11:02:40.268Z,11.43
2023-03-18T11:03:43.836Z,10.25
2023-03-18T11:04:47.049Z,11.14
2023-03-18T11:05:50.096Z,12.00
2023-03-18T11:06:53.488Z,13.71
2023-03-18T11:07:57.077Z,12.00
2023-03-18T11:09:00.359Z,11.00
2023-03-18T11:10:03.767Z,10.86
2023-03-18T11:11:06.947Z,10.43
2023-03-18T11:12:10.316Z,10.43
2023-03-18T11:13:13.911Z,10.29
2023-03-18T11:14:17.478Z,10.00
2023-03-18T11:15:20.800Z,10.00
2023-03-18T11:16:24.116Z,11.00
2023-03-18T11:17:27.769Z,11.29
2023-03-18T11:18:31.457Z,11.88
2023-03-18T11:19:34.645Z,11.50
2023-03-18T11:20:38.054Z,11.71
2023-03-18T11:21:41.309Z,9.14
2023-03-18T11:22:44.707Z,9.57
2023-03-18T11:23:48.063Z,10.43
2023-03-18T11:24:51.470Z,10.71
2023-03-18T11:25:54.856Z,10.57
2023-03-18T11:26:58.091Z,8.71
2023-03-18T11:28:01.215Z,9.00
2023-03-18T11:29:04.299Z,11.17
2023-03-18T11:30:07.272Z,10.67
2023-03-18T11:31:10.408Z,9.17
2023-03-18T11:32:13.539Z,9.83
2023-03-18T11:33:16.782Z,10.29
2023-03-18T11:34:20.105Z,10.00
2023-03-18T11:35:23.240Z,10.86
2023-03-18T11:36:26.363Z,10.14
2023-03-18T11:37:31.125Z,9.29
2023-03-18T11:38:34.161Z,10.50
2023-03-18T11:39:37.497Z,11.00
2023-03-18T11:40:40.703Z,12.00
2023-03-18T11:41:43.911Z,11.57
2023-03-18T11:42:47.194Z,7.86
2023-03-18T11:43:50.683Z,8.86
2023-03-18T11:44:54.048Z,10.57
2023-03-18T11:45:57.145Z,11.14
2023-03-18T11:47:00.601Z,8.29
2023-03-18T11:48:03.814Z,8.71
2023-03-18T11:49:07.314Z,10.00
2023-03-18T11:50:10.565Z,9.57
2023-03-18T11:51:13.877Z,10.17
2023-03-18T11:52:17.030Z,11.57
2023-03-18T11:53:20.348Z,10.33
2023-03-18T11:54:23.687Z,10.14
2023-03-18T11:55:27.329Z,11.43
2023-03-18T11:56:30.403Z,11.14
2023-03-18T11:57:33.686Z,12.00
2023-03-18T11:58:36.671Z,11.50
2023-03-18T11:59:39.759Z,9.33
2023-03-18T12:00:43.032Z,10.86
2023-03-18T12:01:46.222Z,12.00
2023-03-18T12:02:49.309Z,10.43
2023-03-18T12:03:52.473Z,10.00
2023-03-18T12:04:55.474Z,10.00
2023-03-18T12:05:58.364Z,11.33
2023-03-18T12:07:01.299Z,10.33
2023-03-18T12:08:04.286Z,11.29
2023-03-18T12:09:07.353Z,10.00
2023-03-18T12:10:10.545Z,9.83
2023-03-18T12:11:13.515Z,11.67
2023-03-18T12:12:16.626Z,13.50
2023-03-18T12:13:19.890Z,14.33
2023-03-18T12:14:23.077Z,11.83
2023-03-18T12:15:26.139Z,11.17
2023-03-18T12:16:29.363Z,9.33
2023-03-18T12:17:32.514Z,10.86
2023-03-18T12:18:35.575Z,10.00
2023-03-18T12:19:38.675Z,10.29
2023-03-18T12:20:41.842Z,9.29
2023-03-18T12:21:44.931Z,9.00
2023-03-18T12:22:48.111Z,10.43
2023-03-18T12:23:51.147Z,9.43
2023-03-18T12:24:54.160Z,8.57
2023-03-18T12:25:57.348Z,9.50
2023-03-18T12:27:00.320Z,11.83
2023-03-18T12:28:03.359Z,9.67
2023-03-18T12:29:06.587Z,9.29
2023-03-18T12:30:12.756Z,10.00
2023-03-18T12:31:15.674Z,9.13
2023-03-18T12:32:18.935Z,10.00
2023-03-18T12:33:22.090Z,9.29
2023-03-18T12:34:25.081Z,10.86
2023-03-18T12:35:28.284Z,11.29
2023-03-18T12:36:31.416Z,10.14
2023-03-18T12:37:34.494Z,9.14
2023-03-18T12:38:37.668Z,10.33
2023-03-18T12:39:40.754Z,11.50
2023-03-18T12:40:43.736Z,12.00
2023-03-18T12:41:46.550Z,11.33
2023-03-18T12:42:49.491Z,12.00
2023-03-18T12:43:52.571Z,9.67
2023-03-18T12:44:55.538Z,9.86
2023-03-18T12:45:58.677Z,8.43
2023-03-18T12:47:01.669Z,7.57
2023-03-18T12:48:04.673Z,9.67
2023-03-18T12:49:07.857Z,11.00
2023-03-18T12:50:11.042Z,10.71
2023-03-18T12:51:14.121Z,9.14
2023-03-18T12:52:17.405Z,9.57
2023-03-18T12:53:20.458Z,8.29
2023-03-18T12:54:23.472Z,8.43
2023-03-18T12:55:26.752Z,10.57
2023-03-18T12:56:29.831Z,8.71
2023-03-18T12:57:33.023Z,8.00
2023-03-18T12:58:35.980Z,8.83
2023-03-18T12:59:39.072Z,8.00
2023-03-18T13:00:42.097Z,7.71
2023-03-18T13:01:45.254Z,7.57
2023-03-18T13:02:48.376Z,7.71
2023-03-18T13:03:51.416Z,8.57
2023-03-18T13:04:55.368Z,10.86
2023-03-18T13:05:58.681Z,10.13
2023-03-18T13:07:01.637Z,9.43
2023-03-18T13:08:04.715Z,11.71
2023-03-18T13:09:07.717Z,12.86
2023-03-18T13:10:10.783Z,12.33
2023-03-18T13:11:13.852Z,10.86
2023-03-18T13:12:17.146Z,9.57
2023-03-18T13:13:20.260Z,9.50
2023-03-18T13:14:23.293Z,12.00
2023-03-18T13:15:26.274Z,10.14
2023-03-18T13:16:29.464Z,9.00
2023-03-18T13:17:32.470Z,9.71
2023-03-18T13:18:35.476Z,12.17
2023-03-18T13:19:38.591Z,8.83
2023-03-18T13:20:41.771Z,8.00
2023-03-18T13:21:44.796Z,9.29
2023-03-18T13:22:47.725Z,11.43
2023-03-18T13:23:50.832Z,10.33
2023-03-18T13:24:53.793Z,10.83
2023-03-18T13:25:56.758Z,10.86
2023-03-18T13:26:59.833Z,10.29
2023-03-18T13:28:02.916Z,8.29
2023-03-18T13:29:05.992Z,9.17
2023-03-18T13:30:09.171Z,9.17
2023-03-18T13:31:12.325Z,7.33
2023-03-18T13:32:15.548Z,9.43
2023-03-18T13:33:18.626Z,9.43
2023-03-18T13:34:21.908Z,10.43
2023-03-18T13:35:25.090Z,12.43
2023-03-18T13:36:28.139Z,10.00
2023-03-18T13:37:31.139Z,9.50
2023-03-18T13:38:34.329Z,9.86
2023-03-18T13:39:37.615Z,11.00
2023-03-18T13:40:42.687Z,10.00
2023-03-18T13:41:44.928Z,8.43
2023-03-18T13:42:47.869Z,10.33
2023-03-18T13:43:50.947Z,13.00
2023-03-18T13:44:54.031Z,12.29
2023-03-18T13:45:57.293Z,9.86
2023-03-18T13:47:00.392Z,8.71
2023-03-18T13:48:03.585Z,10.14
2023-03-18T13:49:06.763Z,11.33
2023-03-18T13:50:09.733Z,11.00
2023-03-18T13:51:12.913Z,9.57